sensor_id;sensor_type;location;lat;lon;timestamp;pressure;altitude;pressure_sealevel;temperature;humidity
54600;BME280;40500;51.084;16.958;2022-10-18T00:01:29;101226.13;;;13.21;68.79
54600;BME280;40500;51.084;16.958;2022-10-18T00:03:59;101225.95;;;13.21;69.03
54600;BME280;40500;51.084;16.958;2022-10-18T00:06:29;101216.80;;;13.21;69.09
54600;BME280;40500;51.084;16.958;2022-10-18T00:08:59;101222.42;;;13.21;69.30
54600;BME280;40500;51.084;16.958;2022-10-18T00:11:30;101221.73;;;13.20;69.42
54600;BME280;40500;51.084;16.958;2022-10-18T00:14:00;101223.52;;;13.18;69.50
54600;BME280;40500;51.084;16.958;2022-10-18T00:16:31;101227.44;;;13.15;69.60
54600;BME280;40500;51.084;16.958;2022-10-18T00:19:01;101222.95;;;13.09;69.60
54600;BME280;40500;51.084;16.958;2022-10-18T00:21:31;101224.79;;;13.03;69.81
54600;BME280;40500;51.084;16.958;2022-10-18T00:24:02;101223.91;;;13.01;69.93
54600;BME280;40500;51.084;16.958;2022-10-18T00:26:33;101219.90;;;12.99;70.10
54600;BME280;40500;51.084;16.958;2022-10-18T00:29:06;101223.07;;;12.98;70.11
54600;BME280;40500;51.084;16.958;2022-10-18T00:31:37;101221.52;;;12.97;70.27
54600;BME280;40500;51.084;16.958;2022-10-18T00:34:11;101221.21;;;12.93;70.40
54600;BME280;40500;51.084;16.958;2022-10-18T00:36:42;101219.68;;;12.88;70.56
54600;BME280;40500;51.084;16.958;2022-10-18T00:39:15;101220.25;;;12.85;70.64
54600;BME280;40500;51.084;16.958;2022-10-18T00:41:46;101226.42;;;12.84;70.82
54600;BME280;40500;51.084;16.958;2022-10-18T00:47:21;101225.26;;;12.78;71.01
54600;BME280;40500;51.084;16.958;2022-10-18T00:49:53;101220.36;;;12.75;70.96
54600;BME280;40500;51.084;16.958;2022-10-18T00:52:28;101220.03;;;12.74;71.03
54600;BME280;40500;51.084;16.958;2022-10-18T00:55:02;101211.97;;;12.72;71.24
54600;BME280;40500;51.084;16.958;2022-10-18T00:57:33;101209.89;;;12.70;71.28
54600;BME280;40500;51.084;16.958;2022-10-18T01:00:07;101205.37;;;12.66;71.29
54600;BME280;40500;51.084;16.958;2022-10-18T01:02:40;101203.80;;;12.64;71.42
54600;BME280;40500;51.084;16.958;2022-10-18T01:05:13;101205.59;;;12.62;71.58
54600;BME280;40500;51.084;16.958;2022-10-18T01:08:04;101201.41;;;12.57;71.54
54600;BME280;40500;51.084;16.958;2022-10-18T01:10:41;101196.55;;;12.53;71.56
54600;BME280;40500;51.084;16.958;2022-10-18T01:13:37;101200.45;;;12.51;71.60
54600;BME280;40500;51.084;16.958;2022-10-18T01:16:16;101199.75;;;12.49;71.51
54600;BME280;40500;51.084;16.958;2022-10-18T01:18:51;101201.54;;;12.48;71.71
54600;BME280;40500;51.084;16.958;2022-10-18T01:21:36;101202.08;;;12.45;71.78
54600;BME280;40500;51.084;16.958;2022-10-18T01:24:24;101199.27;;;12.44;72.00
54600;BME280;40500;51.084;16.958;2022-10-18T01:27:07;101196.84;;;12.43;71.99
54600;BME280;40500;51.084;16.958;2022-10-18T01:29:54;101198.27;;;12.42;72.20
54600;BME280;40500;51.084;16.958;2022-10-18T01:32:35;101198.45;;;12.41;72.34
54600;BME280;40500;51.084;16.958;2022-10-18T01:35:10;101194.77;;;12.40;72.45
54600;BME280;40500;51.084;16.958;2022-10-18T01:37:44;101192.67;;;12.38;72.45
54600;BME280;40500;51.084;16.958;2022-10-18T01:40:18;101189.89;;;12.36;72.57
54600;BME280;40500;51.084;16.958;2022-10-18T01:42:49;101191.48;;;12.34;72.51
54600;BME280;40500;51.084;16.958;2022-10-18T01:45:22;101188.36;;;12.30;72.37
54600;BME280;40500;51.084;16.958;2022-10-18T01:47:54;101186.80;;;12.28;72.46
54600;BME280;40500;51.084;16.958;2022-10-18T01:50:30;101192.11;;;12.25;72.43
54600;BME280;40500;51.084;16.958;2022-10-18T01:53:01;101186.88;;;12.21;72.52
54600;BME280;40500;51.084;16.958;2022-10-18T01:55:39;101186.02;;;12.19;72.63
54600;BME280;40500;51.084;16.958;2022-10-18T01:58:16;101184.45;;;12.19;72.72
54600;BME280;40500;51.084;16.958;2022-10-18T02:00:53;101180.80;;;12.15;72.77
54600;BME280;40500;51.084;16.958;2022-10-18T02:03:28;101185.28;;;12.04;72.63
54600;BME280;40500;51.084;16.958;2022-10-18T02:06:01;101185.39;;;11.94;72.54
54600;BME280;40500;51.084;16.958;2022-10-18T02:08:36;101184.02;;;11.90;72.67
54600;BME280;40500;51.084;16.958;2022-10-18T02:11:08;101187.16;;;11.89;72.80
54600;BME280;40500;51.084;16.958;2022-10-18T02:13:42;101188.22;;;11.90;72.94
54600;BME280;40500;51.084;16.958;2022-10-18T02:16:18;101191.21;;;11.90;72.96
54600;BME280;40500;51.084;16.958;2022-10-18T02:18:50;101187.86;;;11.91;73.11
54600;BME280;40500;51.084;16.958;2022-10-18T02:21:25;101193.14;;;11.91;73.29
54600;BME280;40500;51.084;16.958;2022-10-18T02:23:57;101184.52;;;11.92;73.47
54600;BME280;40500;51.084;16.958;2022-10-18T02:26:30;101181.19;;;11.91;73.53
54600;BME280;40500;51.084;16.958;2022-10-18T02:29:00;101187.17;;;11.90;73.57
54600;BME280;40500;51.084;16.958;2022-10-18T02:31:33;101188.75;;;11.90;73.64
54600;BME280;40500;51.084;16.958;2022-10-18T02:34:11;101188.91;;;11.88;73.78
54600;BME280;40500;51.084;16.958;2022-10-18T02:36:44;101184.19;;;11.86;73.80
54600;BME280;40500;51.084;16.958;2022-10-18T02:39:18;101186.48;;;11.83;73.85
54600;BME280;40500;51.084;16.958;2022-10-18T02:41:50;101184.39;;;11.83;73.97
54600;BME280;40500;51.084;16.958;2022-10-18T02:44:22;101184.73;;;11.83;74.15
54600;BME280;40500;51.084;16.958;2022-10-18T02:46:54;101183.67;;;11.83;74.29
54600;BME280;40500;51.084;16.958;2022-10-18T02:49:24;101187.38;;;11.82;74.23
54600;BME280;40500;51.084;16.958;2022-10-18T02:51:55;101193.19;;;11.80;74.31
54600;BME280;40500;51.084;16.958;2022-10-18T02:54:27;101192.49;;;11.79;74.28
54600;BME280;40500;51.084;16.958;2022-10-18T02:56:58;101191.12;;;11.76;74.38
54600;BME280;40500;51.084;16.958;2022-10-18T02:59:28;101190.98;;;11.72;74.35
54600;BME280;40500;51.084;16.958;2022-10-18T03:01:58;101196.77;;;11.71;74.47
54600;BME280;40500;51.084;16.958;2022-10-18T03:04:28;101200.45;;;11.72;74.55
54600;BME280;40500;51.084;16.958;2022-10-18T03:06:58;101205.17;;;11.74;74.78
54600;BME280;40500;51.084;16.958;2022-10-18T03:09:29;101206.40;;;11.75;74.85
54600;BME280;40500;51.084;16.958;2022-10-18T03:11:59;101212.71;;;11.74;74.86
54600;BME280;40500;51.084;16.958;2022-10-18T03:14:32;101210.64;;;11.68;74.68
54600;BME280;40500;51.084;16.958;2022-10-18T03:17:02;101205.26;;;11.61;74.68
54600;BME280;40500;51.084;16.958;2022-10-18T03:19:33;101210.70;;;11.62;74.85
54600;BME280;40500;51.084;16.958;2022-10-18T03:22:03;101217.00;;;11.63;74.98
54600;BME280;40500;51.084;16.958;2022-10-18T03:24:33;101214.73;;;11.63;75.12
54600;BME280;40500;51.084;16.958;2022-10-18T03:27:04;101217.70;;;11.64;75.00
54600;BME280;40500;51.084;16.958;2022-10-18T03:29:34;101215.95;;;11.65;75.23
54600;BME280;40500;51.084;16.958;2022-10-18T03:32:05;101218.61;;;11.60;75.12
54600;BME280;40500;51.084;16.958;2022-10-18T03:34:35;101219.02;;;11.49;75.06
54600;BME280;40500;51.084;16.958;2022-10-18T03:37:05;101221.71;;;11.41;74.97
54600;BME280;40500;51.084;16.958;2022-10-18T03:39:35;101226.80;;;11.40;75.16
54600;BME280;40500;51.084;16.958;2022-10-18T03:42:06;101228.91;;;11.41;75.03
54600;BME280;40500;51.084;16.958;2022-10-18T03:44:36;101227.14;;;11.42;75.21
54600;BME280;40500;51.084;16.958;2022-10-18T03:47:06;101226.63;;;11.42;75.29
54600;BME280;40500;51.084;16.958;2022-10-18T03:49:36;101227.50;;;11.40;75.23
54600;BME280;40500;51.084;16.958;2022-10-18T03:52:07;101227.86;;;11.41;75.33
54600;BME280;40500;51.084;16.958;2022-10-18T03:54:39;101232.95;;;11.40;75.43
54600;BME280;40500;51.084;16.958;2022-10-18T03:57:10;101236.30;;;11.36;75.31
54600;BME280;40500;51.084;16.958;2022-10-18T03:59:40;101233.50;;;11.35;75.18
54600;BME280;40500;51.084;16.958;2022-10-18T04:02:10;101235.26;;;11.34;75.11
54600;BME280;40500;51.084;16.958;2022-10-18T04:04:40;101237.17;;;11.34;75.27
54600;BME280;40500;51.084;16.958;2022-10-18T04:07:11;101239.29;;;11.34;75.33
54600;BME280;40500;51.084;16.958;2022-10-18T04:09:41;101237.36;;;11.35;75.47
54600;BME280;40500;51.084;16.958;2022-10-18T04:12:11;101236.38;;;11.20;75.34
54600;BME280;40500;51.084;16.958;2022-10-18T04:14:41;101236.96;;;11.09;75.24
54600;BME280;40500;51.084;16.958;2022-10-18T04:17:12;101244.85;;;11.10;75.38
54600;BME280;40500;51.084;16.958;2022-10-18T04:19:42;101246.63;;;11.03;75.38
54600;BME280;40500;51.084;16.958;2022-10-18T04:22:12;101244.73;;;10.96;75.40
54600;BME280;40500;51.084;16.958;2022-10-18T04:24:42;101239.31;;;10.96;75.64
54600;BME280;40500;51.084;16.958;2022-10-18T04:27:13;101239.81;;;10.98;75.82
54600;BME280;40500;51.084;16.958;2022-10-18T04:29:43;101243.32;;;10.97;75.67
54600;BME280;40500;51.084;16.958;2022-10-18T04:32:13;101246.70;;;10.84;75.47
54600;BME280;40500;51.084;16.958;2022-10-18T04:34:43;101246.39;;;10.72;75.47
54600;BME280;40500;51.084;16.958;2022-10-18T04:37:14;101243.98;;;10.63;75.44
54600;BME280;40500;51.084;16.958;2022-10-18T04:39:45;101241.86;;;10.64;75.68
54600;BME280;40500;51.084;16.958;2022-10-18T04:42:21;101244.98;;;10.69;75.82
54600;BME280;40500;51.084;16.958;2022-10-18T04:44:52;101246.56;;;10.72;76.12
54600;BME280;40500;51.084;16.958;2022-10-18T04:47:22;101243.58;;;10.75;76.31
54600;BME280;40500;51.084;16.958;2022-10-18T04:49:52;101241.13;;;10.75;76.25
54600;BME280;40500;51.084;16.958;2022-10-18T04:52:22;101240.09;;;10.71;76.21
54600;BME280;40500;51.084;16.958;2022-10-18T04:54:53;101242.73;;;10.65;76.14
54600;BME280;40500;51.084;16.958;2022-10-18T04:57:23;101243.45;;;10.63;76.17
54600;BME280;40500;51.084;16.958;2022-10-18T04:59:53;101239.77;;;10.60;76.16
54600;BME280;40500;51.084;16.958;2022-10-18T05:02:24;101238.71;;;10.59;76.20
54600;BME280;40500;51.084;16.958;2022-10-18T05:04:54;101240.64;;;10.61;76.31
54600;BME280;40500;51.084;16.958;2022-10-18T05:07:25;101243.97;;;10.64;76.44
54600;BME280;40500;51.084;16.958;2022-10-18T05:09:55;101238.38;;;10.63;76.57
54600;BME280;40500;51.084;16.958;2022-10-18T05:12:25;101235.56;;;10.62;76.40
54600;BME280;40500;51.084;16.958;2022-10-18T05:14:55;101233.81;;;10.60;76.52
54600;BME280;40500;51.084;16.958;2022-10-18T05:17:25;101236.10;;;10.54;76.38
54600;BME280;40500;51.084;16.958;2022-10-18T05:19:56;101243.30;;;10.48;76.38
54600;BME280;40500;51.084;16.958;2022-10-18T05:22:26;101243.66;;;10.45;76.32
54600;BME280;40500;51.084;16.958;2022-10-18T05:24:56;101239.63;;;10.47;76.64
54600;BME280;40500;51.084;16.958;2022-10-18T05:27:28;101234.89;;;10.50;76.81
54600;BME280;40500;51.084;16.958;2022-10-18T05:29:58;101240.84;;;10.53;76.80
54600;BME280;40500;51.084;16.958;2022-10-18T05:32:33;101233.13;;;10.52;76.89
54600;BME280;40500;51.084;16.958;2022-10-18T05:35:04;101230.52;;;10.50;76.87
54600;BME280;40500;51.084;16.958;2022-10-18T05:37:34;101238.73;;;10.50;76.84
54600;BME280;40500;51.084;16.958;2022-10-18T05:40:06;101240.48;;;10.53;76.81
54600;BME280;40500;51.084;16.958;2022-10-18T05:42:37;101238.91;;;10.50;76.80
54600;BME280;40500;51.084;16.958;2022-10-18T05:45:08;101243.48;;;10.44;76.80
54600;BME280;40500;51.084;16.958;2022-10-18T05:47:39;101244.01;;;10.44;76.84
54600;BME280;40500;51.084;16.958;2022-10-18T05:50:10;101235.25;;;10.47;77.10
54600;BME280;40500;51.084;16.958;2022-10-18T05:52:40;101235.41;;;10.53;77.24
54600;BME280;40500;51.084;16.958;2022-10-18T05:55:10;101233.46;;;10.57;77.34
54600;BME280;40500;51.084;16.958;2022-10-18T05:57:40;101235.22;;;10.59;77.36
54600;BME280;40500;51.084;16.958;2022-10-18T06:00:13;101233.47;;;10.61;77.39
54600;BME280;40500;51.084;16.958;2022-10-18T06:02:43;101231.17;;;10.63;77.40
54600;BME280;40500;51.084;16.958;2022-10-18T06:05:13;101232.20;;;10.68;77.56
54600;BME280;40500;51.084;16.958;2022-10-18T06:07:44;101234.14;;;10.73;77.55
54600;BME280;40500;51.084;16.958;2022-10-18T06:10:14;101240.23;;;10.80;77.68
54600;BME280;40500;51.084;16.958;2022-10-18T06:12:44;101238.65;;;10.83;77.74
54600;BME280;40500;51.084;16.958;2022-10-18T06:15:14;101239.73;;;10.77;77.66
54600;BME280;40500;51.084;16.958;2022-10-18T06:17:45;101244.10;;;10.78;77.89
54600;BME280;40500;51.084;16.958;2022-10-18T06:20:15;101246.54;;;10.80;78.13
54600;BME280;40500;51.084;16.958;2022-10-18T06:22:45;101246.88;;;10.84;78.28
54600;BME280;40500;51.084;16.958;2022-10-18T06:25:16;101250.01;;;10.90;78.47
54600;BME280;40500;51.084;16.958;2022-10-18T06:27:46;101252.44;;;10.97;78.62
54600;BME280;40500;51.084;16.958;2022-10-18T06:30:16;101254.87;;;11.03;78.68
54600;BME280;40500;51.084;16.958;2022-10-18T06:32:47;101255.36;;;11.10;78.77
54600;BME280;40500;51.084;16.958;2022-10-18T06:35:17;101254.11;;;11.17;78.91
54600;BME280;40500;51.084;16.958;2022-10-18T06:37:49;101250.38;;;11.24;78.99
54600;BME280;40500;51.084;16.958;2022-10-18T06:40:20;101250.53;;;11.31;79.13
54600;BME280;40500;51.084;16.958;2022-10-18T06:42:50;101250.15;;;11.38;79.19
54600;BME280;40500;51.084;16.958;2022-10-18T06:45:33;101247.99;;;11.45;79.10
54600;BME280;40500;51.084;16.958;2022-10-18T06:48:04;101252.87;;;11.52;79.26
54600;BME280;40500;51.084;16.958;2022-10-18T06:50:36;101250.71;;;11.60;79.22
54600;BME280;40500;51.084;16.958;2022-10-18T06:53:08;101258.02;;;11.67;79.39
54600;BME280;40500;51.084;16.958;2022-10-18T06:55:39;101255.54;;;11.75;79.43
54600;BME280;40500;51.084;16.958;2022-10-18T06:58:09;101253.71;;;11.83;79.54
54600;BME280;40500;51.084;16.958;2022-10-18T07:00:39;101254.38;;;11.92;79.43
54600;BME280;40500;51.084;16.958;2022-10-18T07:03:09;101255.00;;;12.01;79.50
54600;BME280;40500;51.084;16.958;2022-10-18T07:05:40;101259.69;;;12.07;79.65
54600;BME280;40500;51.084;16.958;2022-10-18T07:08:10;101262.27;;;12.14;79.80
54600;BME280;40500;51.084;16.958;2022-10-18T07:10:41;101267.64;;;12.22;79.88
54600;BME280;40500;51.084;16.958;2022-10-18T07:13:11;101265.45;;;12.31;80.00
54600;BME280;40500;51.084;16.958;2022-10-18T07:16:05;101259.16;;;12.46;79.92
54600;BME280;40500;51.084;16.958;2022-10-18T07:18:38;101261.63;;;12.63;79.88
54600;BME280;40500;51.084;16.958;2022-10-18T07:21:10;101257.58;;;12.79;79.88
54600;BME280;40500;51.084;16.958;2022-10-18T07:23:42;101263.15;;;12.99;79.98
54600;BME280;40500;51.084;16.958;2022-10-18T07:26:16;101261.45;;;13.09;79.85
54600;BME280;40500;51.084;16.958;2022-10-18T07:28:48;101260.66;;;13.15;79.57
54600;BME280;40500;51.084;16.958;2022-10-18T07:31:19;101266.38;;;13.22;79.29
54600;BME280;40500;51.084;16.958;2022-10-18T07:33:50;101265.57;;;13.32;78.97
54600;BME280;40500;51.084;16.958;2022-10-18T07:36:20;101268.43;;;13.43;78.90
54600;BME280;40500;51.084;16.958;2022-10-18T07:38:51;101269.55;;;13.51;78.67
54600;BME280;40500;51.084;16.958;2022-10-18T07:41:22;101267.48;;;13.60;78.60
54600;BME280;40500;51.084;16.958;2022-10-18T07:43:53;101268.92;;;13.70;78.46
54600;BME280;40500;51.084;16.958;2022-10-18T07:46:23;101266.14;;;13.79;78.21
54600;BME280;40500;51.084;16.958;2022-10-18T07:48:53;101268.09;;;13.90;78.02
54600;BME280;40500;51.084;16.958;2022-10-18T07:51:23;101263.68;;;14.01;77.83
54600;BME280;40500;51.084;16.958;2022-10-18T07:53:54;101269.31;;;14.12;77.61
54600;BME280;40500;51.084;16.958;2022-10-18T07:56:24;101267.02;;;14.22;77.42
54600;BME280;40500;51.084;16.958;2022-10-18T07:58:56;101262.98;;;14.33;77.27
54600;BME280;40500;51.084;16.958;2022-10-18T08:01:26;101258.22;;;14.42;76.95
54600;BME280;40500;51.084;16.958;2022-10-18T08:03:57;101259.27;;;14.54;76.84
54600;BME280;40500;51.084;16.958;2022-10-18T08:06:35;101251.61;;;14.67;76.50
54600;BME280;40500;51.084;16.958;2022-10-18T08:09:05;101248.23;;;14.78;76.35
54600;BME280;40500;51.084;16.958;2022-10-18T08:11:35;101246.58;;;14.90;76.13
54600;BME280;40500;51.084;16.958;2022-10-18T08:14:06;101245.65;;;15.01;75.89
54600;BME280;40500;51.084;16.958;2022-10-18T08:16:36;101243.45;;;15.13;75.73
54600;BME280;40500;51.084;16.958;2022-10-18T08:19:06;101240.17;;;15.26;75.40
54600;BME280;40500;51.084;16.958;2022-10-18T08:21:37;101237.23;;;15.39;75.11
54600;BME280;40500;51.084;16.958;2022-10-18T08:24:07;101233.05;;;15.53;74.80
54600;BME280;40500;51.084;16.958;2022-10-18T08:26:37;101228.67;;;15.66;74.41
54600;BME280;40500;51.084;16.958;2022-10-18T08:29:08;101224.36;;;15.78;74.03
54600;BME280;40500;51.084;16.958;2022-10-18T08:31:52;101222.63;;;15.92;73.75
54600;BME280;40500;51.084;16.958;2022-10-18T08:34:22;101215.42;;;16.04;73.51
54600;BME280;40500;51.084;16.958;2022-10-18T08:36:52;101214.38;;;16.17;73.18
54600;BME280;40500;51.084;16.958;2022-10-18T08:39:23;101209.83;;;16.29;72.95
54600;BME280;40500;51.084;16.958;2022-10-18T08:42:07;101205.45;;;16.40;72.61
54600;BME280;40500;51.084;16.958;2022-10-18T08:44:44;101200.87;;;16.52;72.45
54600;BME280;40500;51.084;16.958;2022-10-18T08:47:17;101198.28;;;16.63;71.97
54600;BME280;40500;51.084;16.958;2022-10-18T08:49:51;101192.70;;;16.73;71.54
54600;BME280;40500;51.084;16.958;2022-10-18T08:52:30;101190.61;;;16.85;71.29
54600;BME280;40500;51.084;16.958;2022-10-18T08:55:04;101192.36;;;16.97;70.96
54600;BME280;40500;51.084;16.958;2022-10-18T08:57:39;101190.08;;;17.09;70.74
54600;BME280;40500;51.084;16.958;2022-10-18T09:00:15;101183.39;;;17.19;70.46
54600;BME280;40500;51.084;16.958;2022-10-18T09:02:49;101180.65;;;17.33;70.04
54600;BME280;40500;51.084;16.958;2022-10-18T09:05:27;101178.80;;;17.47;69.69
54600;BME280;40500;51.084;16.958;2022-10-18T09:08:37;101182.09;;;17.60;69.33
54600;BME280;40500;51.084;16.958;2022-10-18T09:11:23;101185.52;;;17.74;68.94
54600;BME280;40500;51.084;16.958;2022-10-18T09:14:08;101179.58;;;17.89;68.37
54600;BME280;40500;51.084;16.958;2022-10-18T09:16:48;101170.34;;;18.00;68.08
54600;BME280;40500;51.084;16.958;2022-10-18T09:19:29;101161.89;;;18.09;67.79
54600;BME280;40500;51.084;16.958;2022-10-18T09:22:12;101151.73;;;18.20;67.68
54600;BME280;40500;51.084;16.958;2022-10-18T09:24:47;101145.93;;;18.29;67.40
54600;BME280;40500;51.084;16.958;2022-10-18T09:27:33;101139.39;;;18.38;67.12
54600;BME280;40500;51.084;16.958;2022-10-18T09:30:12;101138.29;;;18.44;66.81
54600;BME280;40500;51.084;16.958;2022-10-18T09:32:53;101130.64;;;18.50;66.46
54600;BME280;40500;51.084;16.958;2022-10-18T09:35:32;101127.05;;;18.55;66.28
54600;BME280;40500;51.084;16.958;2022-10-18T09:38:11;101121.48;;;18.57;66.08
54600;BME280;40500;51.084;16.958;2022-10-18T09:40:49;101119.23;;;18.61;65.90
54600;BME280;40500;51.084;16.958;2022-10-18T09:43:23;101120.63;;;18.65;65.94
54600;BME280;40500;51.084;16.958;2022-10-18T09:45:55;101118.05;;;18.73;65.83
54600;BME280;40500;51.084;16.958;2022-10-18T09:48:28;101118.94;;;18.83;65.72
54600;BME280;40500;51.084;16.958;2022-10-18T09:51:02;101115.06;;;18.91;65.65
54600;BME280;40500;51.084;16.958;2022-10-18T09:53:36;101114.16;;;19.01;65.52
54600;BME280;40500;51.084;16.958;2022-10-18T09:56:13;101109.91;;;19.09;65.35
54600;BME280;40500;51.084;16.958;2022-10-18T09:58:45;101108.56;;;19.21;65.31
54600;BME280;40500;51.084;16.958;2022-10-18T10:01:18;101106.12;;;19.28;65.12
54600;BME280;40500;51.084;16.958;2022-10-18T10:03:50;101099.52;;;19.37;64.97
54600;BME280;40500;51.084;16.958;2022-10-18T10:06:28;101099.61;;;19.48;64.84
54600;BME280;40500;51.084;16.958;2022-10-18T10:09:04;101094.96;;;19.57;64.50
54600;BME280;40500;51.084;16.958;2022-10-18T10:11:37;101086.59;;;19.66;64.25
54600;BME280;40500;51.084;16.958;2022-10-18T10:14:14;101072.47;;;19.73;64.00
54600;BME280;40500;51.084;16.958;2022-10-18T10:16:48;101064.03;;;19.79;64.03
54600;BME280;40500;51.084;16.958;2022-10-18T10:19:25;101066.58;;;19.82;63.90
54600;BME280;40500;51.084;16.958;2022-10-18T10:21:59;101065.36;;;19.86;63.80
54600;BME280;40500;51.084;16.958;2022-10-18T10:24:36;101065.17;;;19.90;63.78
54600;BME280;40500;51.084;16.958;2022-10-18T10:27:17;101061.91;;;19.95;63.64
54600;BME280;40500;51.084;16.958;2022-10-18T10:29:51;101052.94;;;20.01;63.44
54600;BME280;40500;51.084;16.958;2022-10-18T10:32:27;101057.65;;;20.07;63.28
54600;BME280;40500;51.084;16.958;2022-10-18T10:34:58;101058.45;;;20.12;63.36
54600;BME280;40500;51.084;16.958;2022-10-18T10:37:34;101063.80;;;20.21;63.06
54600;BME280;40500;51.084;16.958;2022-10-18T10:40:21;101056.66;;;20.29;62.83
54600;BME280;40500;51.084;16.958;2022-10-18T10:43:05;101059.02;;;20.35;62.62
54600;BME280;40500;51.084;16.958;2022-10-18T10:45:59;101048.39;;;20.42;62.22
54600;BME280;40500;51.084;16.958;2022-10-18T10:48:33;101043.84;;;20.44;62.05
54600;BME280;40500;51.084;16.958;2022-10-18T10:51:10;101044.80;;;20.47;62.02
54600;BME280;40500;51.084;16.958;2022-10-18T10:53:47;101038.54;;;20.47;61.91
54600;BME280;40500;51.084;16.958;2022-10-18T10:56:24;101039.39;;;20.48;61.96
54600;BME280;40500;51.084;16.958;2022-10-18T10:58:59;101035.05;;;20.49;61.77
54600;BME280;40500;51.084;16.958;2022-10-18T11:01:32;101032.70;;;20.50;61.58
54600;BME280;40500;51.084;16.958;2022-10-18T11:06:57;101026.11;;;20.54;61.53
54600;BME280;40500;51.084;16.958;2022-10-18T11:09:49;101023.56;;;20.55;61.23
54600;BME280;40500;51.084;16.958;2022-10-18T11:12:25;101019.55;;;20.58;61.37
54600;BME280;40500;51.084;16.958;2022-10-18T11:15:05;101019.66;;;20.60;61.44
54600;BME280;40500;51.084;16.958;2022-10-18T11:17:42;101017.02;;;20.59;61.17
54600;BME280;40500;51.084;16.958;2022-10-18T11:20:21;101015.23;;;20.59;60.95
54600;BME280;40500;51.084;16.958;2022-10-18T11:23:00;101011.30;;;20.60;60.86
54600;BME280;40500;51.084;16.958;2022-10-18T11:25:42;101012.37;;;20.60;60.86
54600;BME280;40500;51.084;16.958;2022-10-18T11:28:21;101010.48;;;20.58;60.56
54600;BME280;40500;51.084;16.958;2022-10-18T11:31:06;101006.20;;;20.58;60.70
54600;BME280;40500;51.084;16.958;2022-10-18T11:33:50;100998.21;;;20.62;60.50
54600;BME280;40500;51.084;16.958;2022-10-18T11:36:44;100988.48;;;20.68;60.37
54600;BME280;40500;51.084;16.958;2022-10-18T11:39:45;100978.94;;;20.74;60.34
54600;BME280;40500;51.084;16.958;2022-10-18T11:42:22;100969.16;;;20.77;60.41
54600;BME280;40500;51.084;16.958;2022-10-18T11:45:01;100961.30;;;20.82;60.26
54600;BME280;40500;51.084;16.958;2022-10-18T11:47:42;100948.58;;;20.86;59.76
54600;BME280;40500;51.084;16.958;2022-10-18T11:50:29;100941.29;;;20.90;59.09
54600;BME280;40500;51.084;16.958;2022-10-18T11:53:14;100950.52;;;20.94;59.04
54600;BME280;40500;51.084;16.958;2022-10-18T11:55:59;100948.48;;;20.96;58.58
54600;BME280;40500;51.084;16.958;2022-10-18T11:58:40;100944.79;;;20.99;58.08
54600;BME280;40500;51.084;16.958;2022-10-18T12:01:23;100935.98;;;21.00;57.90
54600;BME280;40500;51.084;16.958;2022-10-18T12:04:03;100929.79;;;21.03;57.71
54600;BME280;40500;51.084;16.958;2022-10-18T12:06:38;100929.30;;;21.09;57.75
54600;BME280;40500;51.084;16.958;2022-10-18T12:09:16;100929.60;;;21.17;57.61
54600;BME280;40500;51.084;16.958;2022-10-18T12:11:52;100926.16;;;21.25;57.32
54600;BME280;40500;51.084;16.958;2022-10-18T12:14:28;100913.66;;;21.25;57.33
54600;BME280;40500;51.084;16.958;2022-10-18T12:17:03;100911.19;;;21.25;57.01
54600;BME280;40500;51.084;16.958;2022-10-18T12:19:57;100908.81;;;21.23;57.04
54600;BME280;40500;51.084;16.958;2022-10-18T12:22:34;100898.33;;;21.22;56.83
54600;BME280;40500;51.084;16.958;2022-10-18T12:25:10;100889.30;;;21.21;56.70
54600;BME280;40500;51.084;16.958;2022-10-18T12:27:47;100887.44;;;21.20;56.89
54600;BME280;40500;51.084;16.958;2022-10-18T12:30:29;100885.92;;;21.18;56.80
54600;BME280;40500;51.084;16.958;2022-10-18T12:33:07;100884.66;;;21.14;56.78
54600;BME280;40500;51.084;16.958;2022-10-18T12:36:03;100885.65;;;21.09;56.75
54600;BME280;40500;51.084;16.958;2022-10-18T12:38:37;100876.60;;;21.02;56.80
54600;BME280;40500;51.084;16.958;2022-10-18T12:41:18;100874.98;;;20.95;56.79
54600;BME280;40500;51.084;16.958;2022-10-18T12:44:02;100878.30;;;20.89;56.87
54600;BME280;40500;51.084;16.958;2022-10-18T12:46:47;100883.20;;;20.84;57.05
54600;BME280;40500;51.084;16.958;2022-10-18T12:49:23;100878.96;;;20.80;57.21
54600;BME280;40500;51.084;16.958;2022-10-18T12:51:57;100872.11;;;20.78;57.50
54600;BME280;40500;51.084;16.958;2022-10-18T12:54:30;100869.42;;;20.79;57.30
54600;BME280;40500;51.084;16.958;2022-10-18T12:57:01;100862.00;;;20.78;57.29
54600;BME280;40500;51.084;16.958;2022-10-18T12:59:49;100853.95;;;20.78;57.50
54600;BME280;40500;51.084;16.958;2022-10-18T13:02:30;100845.15;;;20.80;57.32
54600;BME280;40500;51.084;16.958;2022-10-18T13:05:03;100841.00;;;20.84;57.50
54600;BME280;40500;51.084;16.958;2022-10-18T13:08:37;100838.91;;;20.90;57.40
54600;BME280;40500;51.084;16.958;2022-10-18T13:11:28;100842.31;;;21.00;57.38
54600;BME280;40500;51.084;16.958;2022-10-18T13:14:28;100840.71;;;21.10;57.44
54600;BME280;40500;51.084;16.958;2022-10-18T13:17:09;100842.70;;;21.17;56.96
54600;BME280;40500;51.084;16.958;2022-10-18T13:19:50;100844.00;;;21.19;56.99
54600;BME280;40500;51.084;16.958;2022-10-18T13:22:54;100839.82;;;21.21;56.79
54600;BME280;40500;51.084;16.958;2022-10-18T13:25:31;100832.94;;;21.23;56.66